sensor_id;sensor_type;location;lat;lon;timestamp;P1;durP1;ratioP1;P2;durP2;ratioP2
68888;SDS011;55930;47.412;8.790;2022-11-15T00:01:46;3.22;;;2.03;;
68888;SDS011;55930;47.412;8.790;2022-11-15T00:05:07;2.40;;;1.73;;
68888;SDS011;55930;47.412;8.790;2022-11-15T00:08:30;3.15;;;1.85;;
68888;SDS011;55930;47.412;8.790;2022-11-15T00:11:51;4.45;;;1.92;;
68888;SDS011;55930;47.412;8.790;2022-11-15T00:15:12;4.67;;;1.90;;
68888;SDS011;55930;47.412;8.790;2022-11-15T00:18:32;5.10;;;1.97;;
68888;SDS011;55930;47.412;8.790;2022-11-15T00:21:52;4.00;;;2.00;;
68888;SDS011;55930;47.412;8.790;2022-11-15T00:25:13;3.07;;;2.00;;
68888;SDS011;55930;47.412;8.790;2022-11-15T00:28:33;2.80;;;1.80;;
68888;SDS011;55930;47.412;8.790;2022-11-15T00:31:54;3.20;;;1.80;;
68888;SDS011;55930;47.412;8.790;2022-11-15T00:35:14;2.42;;;1.70;;
68888;SDS011;55930;47.412;8.790;2022-11-15T00:38:36;4.20;;;2.00;;
68888;SDS011;55930;47.412;8.790;2022-11-15T00:41:58;4.38;;;2.03;;
68888;SDS011;55930;47.412;8.790;2022-11-15T00:45:18;3.00;;;2.00;;
68888;SDS011;55930;47.412;8.790;2022-11-15T00:48:39;3.80;;;2.23;;
68888;SDS011;55930;47.412;8.790;2022-11-15T00:51:59;4.27;;;2.00;;
68888;SDS011;55930;47.412;8.790;2022-11-15T00:55:19;4.47;;;1.90;;
68888;SDS011;55930;47.412;8.790;2022-11-15T00:58:40;4.77;;;2.10;;
68888;SDS011;55930;47.412;8.790;2022-11-15T01:02:00;3.50;;;2.13;;
68888;SDS011;55930;47.412;8.790;2022-11-15T01:05:21;2.63;;;2.03;;
68888;SDS011;55930;47.412;8.790;2022-11-15T01:08:42;6.70;;;1.90;;
68888;SDS011;55930;47.412;8.790;2022-11-15T01:12:02;2.30;;;1.87;;
68888;SDS011;55930;47.412;8.790;2022-11-15T01:15:23;5.60;;;1.90;;
68888;SDS011;55930;47.412;8.790;2022-11-15T01:18:44;2.67;;;1.90;;
68888;SDS011;55930;47.412;8.790;2022-11-15T01:22:05;5.30;;;1.92;;
68888;SDS011;55930;47.412;8.790;2022-11-15T01:25:26;6.60;;;2.17;;
68888;SDS011;55930;47.412;8.790;2022-11-15T01:28:46;5.47;;;2.17;;
68888;SDS011;55930;47.412;8.790;2022-11-15T01:32:06;2.90;;;1.80;;
68888;SDS011;55930;47.412;8.790;2022-11-15T01:35:27;3.20;;;2.08;;
68888;SDS011;55930;47.412;8.790;2022-11-15T01:38:54;3.00;;;2.17;;
68888;SDS011;55930;47.412;8.790;2022-11-15T01:42:18;5.68;;;1.90;;
68888;SDS011;55930;47.412;8.790;2022-11-15T01:45:38;2.10;;;1.83;;
68888;SDS011;55930;47.412;8.790;2022-11-15T01:49:08;3.60;;;2.03;;
68888;SDS011;55930;47.412;8.790;2022-11-15T01:52:36;2.47;;;2.10;;
68888;SDS011;55930;47.412;8.790;2022-11-15T01:55:59;3.75;;;2.30;;
68888;SDS011;55930;47.412;8.790;2022-11-15T01:59:24;2.60;;;2.08;;
68888;SDS011;55930;47.412;8.790;2022-11-15T02:02:45;4.05;;;2.25;;
68888;SDS011;55930;47.412;8.790;2022-11-15T02:06:06;4.17;;;2.20;;
68888;SDS011;55930;47.412;8.790;2022-11-15T02:09:26;3.10;;;2.00;;
68888;SDS011;55930;47.412;8.790;2022-11-15T02:12:47;3.17;;;1.90;;
68888;SDS011;55930;47.412;8.790;2022-11-15T02:38:12;5.40;;;2.22;;
68888;SDS011;55930;47.412;8.790;2022-11-15T02:41:52;3.67;;;2.05;;
68888;SDS011;55930;47.412;8.790;2022-11-15T02:45:19;4.38;;;1.90;;
68888;SDS011;55930;47.412;8.790;2022-11-15T02:48:51;2.90;;;1.83;;
68888;SDS011;55930;47.412;8.790;2022-11-15T02:52:19;5.23;;;1.80;;
68888;SDS011;55930;47.412;8.790;2022-11-15T02:55:43;4.55;;;1.90;;
68888;SDS011;55930;47.412;8.790;2022-11-15T03:02:55;4.90;;;1.75;;
68888;SDS011;55930;47.412;8.790;2022-11-15T03:06:22;3.35;;;1.92;;
68888;SDS011;55930;47.412;8.790;2022-11-15T03:10:06;2.75;;;1.75;;
68888;SDS011;55930;47.412;8.790;2022-11-15T03:20:32;4.13;;;1.70;;
68888;SDS011;55930;47.412;8.790;2022-11-15T03:23:55;5.00;;;1.90;;
68888;SDS011;55930;47.412;8.790;2022-11-15T03:27:21;1.83;;;1.50;;
68888;SDS011;55930;47.412;8.790;2022-11-15T03:30:45;2.03;;;1.58;;
68888;SDS011;55930;47.412;8.790;2022-11-15T03:34:08;5.80;;;1.50;;
68888;SDS011;55930;47.412;8.790;2022-11-15T03:41:33;2.30;;;1.55;;
68888;SDS011;55930;47.412;8.790;2022-11-15T03:48:30;2.20;;;1.58;;
68888;SDS011;55930;47.412;8.790;2022-11-15T03:51:57;1.80;;;1.25;;
68888;SDS011;55930;47.412;8.790;2022-11-15T03:55:21;2.88;;;1.60;;
68888;SDS011;55930;47.412;8.790;2022-11-15T03:58:42;3.00;;;1.83;;
68888;SDS011;55930;47.412;8.790;2022-11-15T04:02:04;2.05;;;1.65;;
68888;SDS011;55930;47.412;8.790;2022-11-15T04:05:25;3.10;;;1.63;;
68888;SDS011;55930;47.412;8.790;2022-11-15T04:08:45;2.90;;;1.80;;
68888;SDS011;55930;47.412;8.790;2022-11-15T04:12:05;2.63;;;1.43;;
68888;SDS011;55930;47.412;8.790;2022-11-15T04:15:26;2.80;;;1.70;;
68888;SDS011;55930;47.412;8.790;2022-11-15T04:18:46;4.20;;;2.03;;
68888;SDS011;55930;47.412;8.790;2022-11-15T04:22:27;2.70;;;1.67;;
68888;SDS011;55930;47.412;8.790;2022-11-15T04:26:22;2.90;;;1.90;;
68888;SDS011;55930;47.412;8.790;2022-11-15T04:29:43;1.90;;;1.60;;
68888;SDS011;55930;47.412;8.790;2022-11-15T04:33:04;3.67;;;1.97;;
68888;SDS011;55930;47.412;8.790;2022-11-15T04:36:24;5.17;;;2.00;;
68888;SDS011;55930;47.412;8.790;2022-11-15T04:40:03;1.90;;;1.42;;
68888;SDS011;55930;47.412;8.790;2022-11-15T04:43:24;3.95;;;1.60;;
68888;SDS011;55930;47.412;8.790;2022-11-15T04:46:44;2.17;;;1.77;;
68888;SDS011;55930;47.412;8.790;2022-11-15T04:50:05;3.37;;;1.60;;
68888;SDS011;55930;47.412;8.790;2022-11-15T04:53:26;2.55;;;1.80;;
68888;SDS011;55930;47.412;8.790;2022-11-15T04:56:46;2.03;;;1.63;;
68888;SDS011;55930;47.412;8.790;2022-11-15T05:00:11;1.93;;;1.40;;
68888;SDS011;55930;47.412;8.790;2022-11-15T05:03:33;2.85;;;1.50;;
68888;SDS011;55930;47.412;8.790;2022-11-15T05:07:12;2.25;;;1.63;;
68888;SDS011;55930;47.412;8.790;2022-11-15T05:10:33;2.70;;;1.67;;
68888;SDS011;55930;47.412;8.790;2022-11-15T05:13:53;2.78;;;1.75;;
68888;SDS011;55930;47.412;8.790;2022-11-15T05:17:14;1.67;;;1.40;;
68888;SDS011;55930;47.412;8.790;2022-11-15T05:20:34;1.97;;;1.60;;
68888;SDS011;55930;47.412;8.790;2022-11-15T05:23:55;2.83;;;1.70;;
68888;SDS011;55930;47.412;8.790;2022-11-15T05:27:15;2.43;;;1.20;;
68888;SDS011;55930;47.412;8.790;2022-11-15T05:30:35;4.10;;;1.60;;
68888;SDS011;55930;47.412;8.790;2022-11-15T05:33:56;2.70;;;1.97;;
68888;SDS011;55930;47.412;8.790;2022-11-15T05:37:20;2.53;;;1.70;;
68888;SDS011;55930;47.412;8.790;2022-11-15T05:40:41;3.23;;;1.80;;
68888;SDS011;55930;47.412;8.790;2022-11-15T05:44:01;2.23;;;1.50;;
68888;SDS011;55930;47.412;8.790;2022-11-15T05:47:26;4.72;;;1.80;;
68888;SDS011;55930;47.412;8.790;2022-11-15T05:50:49;3.55;;;1.80;;
68888;SDS011;55930;47.412;8.790;2022-11-15T05:54:12;2.72;;;1.90;;
68888;SDS011;55930;47.412;8.790;2022-11-15T05:57:33;4.50;;;2.42;;
68888;SDS011;55930;47.412;8.790;2022-11-15T06:00:55;5.68;;;1.90;;
68888;SDS011;55930;47.412;8.790;2022-11-15T06:04:17;3.27;;;2.07;;
68888;SDS011;55930;47.412;8.790;2022-11-15T06:07:38;3.95;;;2.25;;
68888;SDS011;55930;47.412;8.790;2022-11-15T06:11:07;4.45;;;2.25;;
68888;SDS011;55930;47.412;8.790;2022-11-15T06:14:27;3.53;;;1.80;;
68888;SDS011;55930;47.412;8.790;2022-11-15T06:17:50;2.78;;;1.80;;
68888;SDS011;55930;47.412;8.790;2022-11-15T06:21:10;2.80;;;1.90;;
68888;SDS011;55930;47.412;8.790;2022-11-15T06:24:31;2.10;;;1.70;;
68888;SDS011;55930;47.412;8.790;2022-11-15T06:27:54;3.20;;;1.80;;
68888;SDS011;55930;47.412;8.790;2022-11-15T06:31:16;3.67;;;2.20;;
68888;SDS011;55930;47.412;8.790;2022-11-15T06:34:36;4.50;;;2.07;;
68888;SDS011;55930;47.412;8.790;2022-11-15T06:38:01;3.77;;;2.80;;
68888;SDS011;55930;47.412;8.790;2022-11-15T06:41:26;5.55;;;2.88;;
68888;SDS011;55930;47.412;8.790;2022-11-15T06:44:46;2.90;;;2.00;;
68888;SDS011;55930;47.412;8.790;2022-11-15T06:48:06;2.93;;;2.20;;
68888;SDS011;55930;47.412;8.790;2022-11-15T06:51:31;3.17;;;1.75;;
68888;SDS011;55930;47.412;8.790;2022-11-15T06:54:54;2.78;;;1.85;;
68888;SDS011;55930;47.412;8.790;2022-11-15T06:58:14;3.77;;;2.13;;
68888;SDS011;55930;47.412;8.790;2022-11-15T07:01:36;2.77;;;1.97;;
68888;SDS011;55930;47.412;8.790;2022-11-15T07:04:56;5.60;;;2.13;;
68888;SDS011;55930;47.412;8.790;2022-11-15T07:08:19;3.33;;;1.95;;
68888;SDS011;55930;47.412;8.790;2022-11-15T07:11:39;2.53;;;1.90;;
68888;SDS011;55930;47.412;8.790;2022-11-15T07:15:00;4.33;;;2.50;;
68888;SDS011;55930;47.412;8.790;2022-11-15T07:18:20;10.20;;;8.67;;
68888;SDS011;55930;47.412;8.790;2022-11-15T07:21:41;16.47;;;14.67;;
68888;SDS011;55930;47.412;8.790;2022-11-15T07:25:01;9.67;;;8.23;;
68888;SDS011;55930;47.412;8.790;2022-11-15T07:28:21;10.23;;;7.73;;
68888;SDS011;55930;47.412;8.790;2022-11-15T07:31:42;13.13;;;10.03;;
68888;SDS011;55930;47.412;8.790;2022-11-15T07:35:03;22.47;;;18.73;;
68888;SDS011;55930;47.412;8.790;2022-11-15T07:38:23;17.80;;;6.70;;
68888;SDS011;55930;47.412;8.790;2022-11-15T07:41:46;6.65;;;3.33;;
68888;SDS011;55930;47.412;8.790;2022-11-15T07:45:08;7.28;;;3.47;;
68888;SDS011;55930;47.412;8.790;2022-11-15T07:48:28;6.50;;;3.80;;
68888;SDS011;55930;47.412;8.790;2022-11-15T07:51:49;11.07;;;3.97;;
68888;SDS011;55930;47.412;8.790;2022-11-15T07:55:09;9.57;;;4.50;;
68888;SDS011;55930;47.412;8.790;2022-11-15T07:58:32;11.98;;;5.20;;
68888;SDS011;55930;47.412;8.790;2022-11-15T08:01:53;16.13;;;7.90;;
68888;SDS011;55930;47.412;8.790;2022-11-15T08:05:13;13.37;;;8.70;;
68888;SDS011;55930;47.412;8.790;2022-11-15T08:08:34;14.05;;;8.75;;
68888;SDS011;55930;47.412;8.790;2022-11-15T08:11:57;11.50;;;9.35;;
68888;SDS011;55930;47.412;8.790;2022-11-15T08:15:17;15.80;;;11.53;;
68888;SDS011;55930;47.412;8.790;2022-11-15T08:18:37;12.73;;;10.43;;
68888;SDS011;55930;47.412;8.790;2022-11-15T08:21:58;13.20;;;9.27;;
68888;SDS011;55930;47.412;8.790;2022-11-15T08:25:18;6.87;;;5.63;;
68888;SDS011;55930;47.412;8.790;2022-11-15T08:28:38;5.07;;;3.70;;
68888;SDS011;55930;47.412;8.790;2022-11-15T08:31:59;6.33;;;2.60;;
68888;SDS011;55930;47.412;8.790;2022-11-15T08:35:19;2.97;;;2.50;;
68888;SDS011;55930;47.412;8.790;2022-11-15T08:38:40;5.22;;;2.47;;
68888;SDS011;55930;47.412;8.790;2022-11-15T08:42:01;2.97;;;2.00;;
68888;SDS011;55930;47.412;8.790;2022-11-15T08:45:22;5.17;;;2.07;;
68888;SDS011;55930;47.412;8.790;2022-11-15T08:48:42;5.13;;;2.23;;
68888;SDS011;55930;47.412;8.790;2022-11-15T08:52:02;5.50;;;3.00;;
68888;SDS011;55930;47.412;8.790;2022-11-15T08:55:24;25.67;;;15.82;;
68888;SDS011;55930;47.412;8.790;2022-11-15T08:58:47;17.37;;;12.97;;
68888;SDS011;55930;47.412;8.790;2022-11-15T09:02:10;12.55;;;9.50;;
68888;SDS011;55930;47.412;8.790;2022-11-15T09:05:35;7.97;;;5.38;;
68888;SDS011;55930;47.412;8.790;2022-11-15T09:08:56;6.03;;;3.10;;
68888;SDS011;55930;47.412;8.790;2022-11-15T09:12:19;4.38;;;2.20;;
68888;SDS011;55930;47.412;8.790;2022-11-15T09:15:42;4.93;;;2.20;;
68888;SDS011;55930;47.412;8.790;2022-11-15T09:19:03;2.90;;;1.80;;
68888;SDS011;55930;47.412;8.790;2022-11-15T09:22:26;3.70;;;1.83;;
68888;SDS011;55930;47.412;8.790;2022-11-15T09:25:49;86.85;;;33.53;;
68888;SDS011;55930;47.412;8.790;2022-11-15T09:29:09;3.47;;;1.92;;
68888;SDS011;55930;47.412;8.790;2022-11-15T09:32:30;12.77;;;4.93;;
68888;SDS011;55930;47.412;8.790;2022-11-15T09:35:50;7.47;;;2.20;;
68888;SDS011;55930;47.412;8.790;2022-11-15T09:39:13;5.83;;;2.00;;
68888;SDS011;55930;47.412;8.790;2022-11-15T09:49:50;3.10;;;1.90;;
68888;SDS011;55930;47.412;8.790;2022-11-15T09:53:27;3.80;;;2.03;;
68888;SDS011;55930;47.412;8.790;2022-11-15T09:57:14;5.82;;;3.20;;
68888;SDS011;55930;47.412;8.790;2022-11-15T10:00:39;5.15;;;2.75;;
68888;SDS011;55930;47.412;8.790;2022-11-15T10:04:06;3.70;;;2.63;;
68888;SDS011;55930;47.412;8.790;2022-11-15T10:11:11;5.03;;;3.45;;
68888;SDS011;55930;47.412;8.790;2022-11-15T10:14:34;4.55;;;2.40;;
68888;SDS011;55930;47.412;8.790;2022-11-15T10:21:29;5.87;;;2.50;;
68888;SDS011;55930;47.412;8.790;2022-11-15T10:25:09;6.07;;;2.70;;
68888;SDS011;55930;47.412;8.790;2022-11-15T10:28:36;8.32;;;2.70;;
68888;SDS011;55930;47.412;8.790;2022-11-15T10:31:57;5.20;;;2.40;;
68888;SDS011;55930;47.412;8.790;2022-11-15T10:35:22;2.87;;;2.07;;
68888;SDS011;55930;47.412;8.790;2022-11-15T10:42:15;4.07;;;2.75;;
68888;SDS011;55930;47.412;8.790;2022-11-15T10:45:37;4.80;;;2.67;;
68888;SDS011;55930;47.412;8.790;2022-11-15T10:52:44;5.22;;;1.98;;
68888;SDS011;55930;47.412;8.790;2022-11-15T10:56:07;6.35;;;2.53;;
68888;SDS011;55930;47.412;8.790;2022-11-15T10:59:33;5.30;;;2.63;;
68888;SDS011;55930;47.412;8.790;2022-11-15T11:03:04;3.70;;;2.45;;
68888;SDS011;55930;47.412;8.790;2022-11-15T11:06:30;3.80;;;2.25;;
68888;SDS011;55930;47.412;8.790;2022-11-15T11:10:23;3.45;;;2.33;;
68888;SDS011;55930;47.412;8.790;2022-11-15T11:13:44;5.28;;;2.55;;
68888;SDS011;55930;47.412;8.790;2022-11-15T11:31:31;4.23;;;2.40;;
68888;SDS011;55930;47.412;8.790;2022-11-15T11:38:44;5.40;;;2.80;;
68888;SDS011;55930;47.412;8.790;2022-11-15T11:42:17;3.80;;;2.67;;
68888;SDS011;55930;47.412;8.790;2022-11-15T11:45:47;4.68;;;2.50;;
68888;SDS011;55930;47.412;8.790;2022-11-15T11:49:18;3.97;;;2.55;;
68888;SDS011;55930;47.412;8.790;2022-11-15T11:56:29;4.53;;;2.22;;
68888;SDS011;55930;47.412;8.790;2022-11-15T12:03:44;8.90;;;5.43;;
68888;SDS011;55930;47.412;8.790;2022-11-15T12:10:45;5.00;;;2.67;;
68888;SDS011;55930;47.412;8.790;2022-11-15T12:15:12;3.40;;;1.67;;
68888;SDS011;55930;47.412;8.790;2022-11-15T12:18:17;3.75;;;1.88;;
68888;SDS011;55930;47.412;8.790;2022-11-15T12:21:46;4.00;;;1.57;;
68888;SDS011;55930;47.412;8.790;2022-11-15T12:25:17;3.53;;;1.75;;
68888;SDS011;55930;47.412;8.790;2022-11-15T12:28:52;3.22;;;1.90;;
68888;SDS011;55930;47.412;8.790;2022-11-15T12:32:26;2.45;;;1.55;;
68888;SDS011;55930;47.412;8.790;2022-11-15T12:35:57;2.10;;;1.45;;
68888;SDS011;55930;47.412;8.790;2022-11-15T12:40:04;1.83;;;1.30;;
68888;SDS011;55930;47.412;8.790;2022-11-15T12:43:35;2.70;;;1.30;;
68888;SDS011;55930;47.412;8.790;2022-11-15T12:47:02;3.70;;;1.70;;
68888;SDS011;55930;47.412;8.790;2022-11-15T12:57:43;1.63;;;1.23;;
68888;SDS011;55930;47.412;8.790;2022-11-15T13:01:06;2.00;;;1.10;;
68888;SDS011;55930;47.412;8.790;2022-11-15T13:04:29;3.20;;;1.17;;
68888;SDS011;55930;47.412;8.790;2022-11-15T13:07:57;3.40;;;1.20;;
68888;SDS011;55930;47.412;8.790;2022-11-15T13:18:33;3.83;;;1.70;;
68888;SDS011;55930;47.412;8.790;2022-11-15T13:21:57;8.10;;;2.28;;
68888;SDS011;55930;47.412;8.790;2022-11-15T13:28:59;8.73;;;2.30;;
68888;SDS011;55930;47.412;8.790;2022-11-15T13:35:41;5.93;;;1.50;;
68888;SDS011;55930;47.412;8.790;2022-11-15T13:39:11;6.25;;;1.70;;
68888;SDS011;55930;47.412;8.790;2022-11-15T13:42:58;7.88;;;1.75;;
68888;SDS011;55930;47.412;8.790;2022-11-15T13:46:29;6.70;;;1.58;;
68888;SDS011;55930;47.412;8.790;2022-11-15T13:49:58;6.38;;;1.58;;
68888;SDS011;55930;47.412;8.790;2022-11-15T13:53:19;7.47;;;5.10;;
68888;SDS011;55930;47.412;8.790;2022-11-15T13:56:40;5.73;;;2.50;;
68888;SDS011;55930;47.412;8.790;2022-11-15T14:00:06;6.45;;;2.13;;
68888;SDS011;55930;47.412;8.790;2022-11-15T14:03:56;3.58;;;1.40;;
68888;SDS011;55930;47.412;8.790;2022-11-15T14:07:23;4.88;;;1.95;;
68888;SDS011;55930;47.412;8.790;2022-11-15T14:10:46;3.97;;;1.35;;
68888;SDS011;55930;47.412;8.790;2022-11-15T14:17:36;5.53;;;1.50;;
68888;SDS011;55930;47.412;8.790;2022-11-15T14:21:07;4.15;;;1.42;;
68888;SDS011;55930;47.412;8.790;2022-11-15T14:24:29;3.50;;;2.00;;
68888;SDS011;55930;47.412;8.790;2022-11-15T14:31:30;3.63;;;1.30;;
68888;SDS011;55930;47.412;8.790;2022-11-15T14:34:59;5.77;;;1.53;;
68888;SDS011;55930;47.412;8.790;2022-11-15T14:38:20;3.83;;;1.40;;
68888;SDS011;55930;47.412;8.790;2022-11-15T14:41:41;5.32;;;1.65;;
68888;SDS011;55930;47.412;8.790;2022-11-15T14:45:07;3.90;;;1.88;;
68888;SDS011;55930;47.412;8.790;2022-11-15T14:48:31;4.88;;;2.03;;
68888;SDS011;55930;47.412;8.790;2022-11-15T14:51:54;4.57;;;1.88;;
68888;SDS011;55930;47.412;8.790;2022-11-15T14:58:55;4.68;;;1.83;;
68888;SDS011;55930;47.412;8.790;2022-11-15T15:02:24;2.85;;;1.60;;
68888;SDS011;55930;47.412;8.790;2022-11-15T15:05:46;5.65;;;1.80;;
68888;SDS011;55930;47.412;8.790;2022-11-15T15:09:07;3.08;;;2.00;;
68888;SDS011;55930;47.412;8.790;2022-11-15T15:12:27;5.30;;;1.90;;
68888;SDS011;55930;47.412;8.790;2022-11-15T15:15:51;6.13;;;2.10;;
68888;SDS011;55930;47.412;8.790;2022-11-15T15:19:12;6.07;;;2.30;;
68888;SDS011;55930;47.412;8.790;2022-11-15T15:22:41;5.32;;;2.38;;
68888;SDS011;55930;47.412;8.790;2022-11-15T15:26:01;3.90;;;2.43;;
68888;SDS011;55930;47.412;8.790;2022-11-15T15:29:22;9.93;;;2.60;;
68888;SDS011;55930;47.412;8.790;2022-11-15T15:32:42;6.07;;;2.70;;
68888;SDS011;55930;47.412;8.790;2022-11-15T15:36:03;3.57;;;2.00;;
68888;SDS011;55930;47.412;8.790;2022-11-15T15:39:24;3.97;;;2.38;;
68888;SDS011;55930;47.412;8.790;2022-11-15T15:42:44;5.80;;;2.37;;
68888;SDS011;55930;47.412;8.790;2022-11-15T15:46:07;5.33;;;1.93;;
68888;SDS011;55930;47.412;8.790;2022-11-15T15:49:29;3.55;;;1.98;;
68888;SDS011;55930;47.412;8.790;2022-11-15T15:52:50;3.30;;;2.10;;
68888;SDS011;55930;47.412;8.790;2022-11-15T15:56:16;2.17;;;1.73;;
68888;SDS011;55930;47.412;8.790;2022-11-15T15:59:36;3.60;;;2.00;;
68888;SDS011;55930;47.412;8.790;2022-11-15T16:02:57;8.13;;;3.97;;
68888;SDS011;55930;47.412;8.790;2022-11-15T16:09:53;8.40;;;4.15;;
68888;SDS011;55930;47.412;8.790;2022-11-15T16:13:19;8.20;;;5.50;;
68888;SDS011;55930;47.412;8.790;2022-11-15T16:16:40;5.73;;;4.43;;
68888;SDS011;55930;47.412;8.790;2022-11-15T16:20:00;13.23;;;5.33;;
68888;SDS011;55930;47.412;8.790;2022-11-15T16:23:21;11.60;;;4.88;;
68888;SDS011;55930;47.412;8.790;2022-11-15T16:26:44;10.38;;;5.20;;
68888;SDS011;55930;47.412;8.790;2022-11-15T16:30:08;10.38;;;5.35;;
68888;SDS011;55930;47.412;8.790;2022-11-15T16:33:36;9.63;;;4.70;;
68888;SDS011;55930;47.412;8.790;2022-11-15T16:36:57;11.00;;;4.88;;
68888;SDS011;55930;47.412;8.790;2022-11-15T16:40:28;7.90;;;4.20;;
68888;SDS011;55930;47.412;8.790;2022-11-15T16:43:50;4.43;;;3.38;;
68888;SDS011;55930;47.412;8.790;2022-11-15T16:47:16;6.43;;;3.33;;
68888;SDS011;55930;47.412;8.790;2022-11-15T16:50:39;10.10;;;5.10;;
68888;SDS011;55930;47.412;8.790;2022-11-15T16:53:59;11.23;;;4.63;;
68888;SDS011;55930;47.412;8.790;2022-11-15T16:57:19;5.43;;;2.77;;
68888;SDS011;55930;47.412;8.790;2022-11-15T17:00:40;4.93;;;2.20;;
68888;SDS011;55930;47.412;8.790;2022-11-15T17:04:05;3.00;;;1.77;;
68888;SDS011;55930;47.412;8.790;2022-11-15T17:07:37;3.55;;;2.00;;
68888;SDS011;55930;47.412;8.790;2022-11-15T17:10:59;5.47;;;2.20;;
68888;SDS011;55930;47.412;8.790;2022-11-15T17:14:21;9.30;;;2.20;;
68888;SDS011;55930;47.412;8.790;2022-11-15T17:17:42;4.70;;;1.85;;
68888;SDS011;55930;47.412;8.790;2022-11-15T17:21:06;2.97;;;1.83;;
68888;SDS011;55930;47.412;8.790;2022-11-15T17:24:29;2.55;;;1.60;;
68888;SDS011;55930;47.412;8.790;2022-11-15T17:27:49;3.30;;;1.57;;
68888;SDS011;55930;47.412;8.790;2022-11-15T17:31:10;2.20;;;1.23;;
68888;SDS011;55930;47.412;8.790;2022-11-15T17:34:32;4.97;;;2.10;;
68888;SDS011;55930;47.412;8.790;2022-11-15T17:37:52;4.83;;;2.10;;
68888;SDS011;55930;47.412;8.790;2022-11-15T17:41:13;4.63;;;2.30;;
68888;SDS011;55930;47.412;8.790;2022-11-15T17:44:39;8.23;;;3.20;;
68888;SDS011;55930;47.412;8.790;2022-11-15T17:48:00;6.30;;;3.33;;
68888;SDS011;55930;47.412;8.790;2022-11-15T17:51:20;6.80;;;3.60;;
68888;SDS011;55930;47.412;8.790;2022-11-15T17:54:42;6.63;;;2.05;;
68888;SDS011;55930;47.412;8.790;2022-11-15T17:58:03;7.53;;;2.90;;
68888;SDS011;55930;47.412;8.790;2022-11-15T18:04:48;8.07;;;4.05;;
68888;SDS011;55930;47.412;8.790;2022-11-15T18:08:10;6.80;;;4.35;;
68888;SDS011;55930;47.412;8.790;2022-11-15T18:11:37;9.18;;;4.95;;
68888;SDS011;55930;47.412;8.790;2022-11-15T18:14:59;8.25;;;5.28;;
68888;SDS011;55930;47.412;8.790;2022-11-15T18:18:20;10.70;;;5.90;;
68888;SDS011;55930;47.412;8.790;2022-11-15T18:21:41;14.38;;;6.43;;
68888;SDS011;55930;47.412;8.790;2022-11-15T18:25:15;11.10;;;6.70;;
68888;SDS011;55930;47.412;8.790;2022-11-15T18:28:43;10.47;;;7.17;;
68888;SDS011;55930;47.412;8.790;2022-11-15T18:32:05;10.30;;;7.30;;
68888;SDS011;55930;47.412;8.790;2022-11-15T18:35:30;10.07;;;7.20;;
68888;SDS011;55930;47.412;8.790;2022-11-15T18:38:54;8.97;;;7.17;;
68888;SDS011;55930;47.412;8.790;2022-11-15T18:45:42;12.17;;;8.60;;
68888;SDS011;55930;47.412;8.790;2022-11-15T18:49:02;11.80;;;9.57;;
68888;SDS011;55930;47.412;8.790;2022-11-15T18:52:23;17.70;;;10.77;;
68888;SDS011;55930;47.412;8.790;2022-11-15T18:55:46;14.60;;;11.15;;
68888;SDS011;55930;47.412;8.790;2022-11-15T18:59:06;17.43;;;10.97;;
68888;SDS011;55930;47.412;8.790;2022-11-15T19:05:48;12.63;;;8.27;;
68888;SDS011;55930;47.412;8.790;2022-11-15T19:09:10;12.53;;;7.40;;
68888;SDS011;55930;47.412;8.790;2022-11-15T19:12:34;10.63;;;7.32;;
68888;SDS011;55930;47.412;8.790;2022-11-15T19:15:58;10.70;;;7.20;;
68888;SDS011;55930;47.412;8.790;2022-11-15T19:19:21;10.02;;;7.25;;
68888;SDS011;55930;47.412;8.790;2022-11-15T19:22:43;12.32;;;8.68;;
68888;SDS011;55930;47.412;8.790;2022-11-15T19:26:04;12.10;;;10.07;;
68888;SDS011;55930;47.412;8.790;2022-11-15T19:29:26;13.80;;;8.43;;
68888;SDS011;55930;47.412;8.790;2022-11-15T19:32:46;11.93;;;8.37;;
68888;SDS011;55930;47.412;8.790;2022-11-15T19:36:13;9.95;;;7.40;;
68888;SDS011;55930;47.412;8.790;2022-11-15T19:39:35;12.82;;;7.82;;
68888;SDS011;55930;47.412;8.790;2022-11-15T19:42:55;14.13;;;7.90;;
68888;SDS011;55930;47.412;8.790;2022-11-15T19:46:16;9.70;;;7.97;;
68888;SDS011;55930;47.412;8.790;2022-11-15T19:49:37;13.32;;;8.25;;
68888;SDS011;55930;47.412;8.790;2022-11-15T19:53:00;11.98;;;8.02;;
68888;SDS011;55930;47.412;8.790;2022-11-15T19:56:20;16.43;;;9.60;;
68888;SDS011;55930;47.412;8.790;2022-11-15T19:59:44;11.45;;;7.93;;
68888;SDS011;55930;47.412;8.790;2022-11-15T20:03:04;9.43;;;7.07;;
68888;SDS011;55930;47.412;8.790;2022-11-15T20:06:29;8.93;;;5.70;;
68888;SDS011;55930;47.412;8.790;2022-11-15T20:09:51;10.52;;;7.10;;
68888;SDS011;55930;47.412;8.790;2022-11-15T20:13:12;6.40;;;4.45;;
68888;SDS011;55930;47.412;8.790;2022-11-15T20:16:33;18.57;;;9.57;;
68888;SDS011;55930;47.412;8.790;2022-11-15T20:19:53;11.47;;;7.60;;
68888;SDS011;55930;47.412;8.790;2022-11-15T20:23:14;14.00;;;8.90;;
68888;SDS011;55930;47.412;8.790;2022-11-15T20:29:56;11.33;;;8.87;;
68888;SDS011;55930;47.412;8.790;2022-11-15T20:33:16;15.97;;;9.90;;
68888;SDS011;55930;47.412;8.790;2022-11-15T20:36:39;11.27;;;9.38;;
68888;SDS011;55930;47.412;8.790;2022-11-15T20:39:59;14.40;;;9.30;;
68888;SDS011;55930;47.412;8.790;2022-11-15T20:43:19;13.33;;;10.33;;
68888;SDS011;55930;47.412;8.790;2022-11-15T20:46:40;13.53;;;11.37;;
68888;SDS011;55930;47.412;8.790;2022-11-15T20:50:03;13.73;;;10.30;;
68888;SDS011;55930;47.412;8.790;2022-11-15T20:53:23;13.87;;;9.67;;
68888;SDS011;55930;47.412;8.790;2022-11-15T20:56:44;16.70;;;10.90;;
68888;SDS011;55930;47.412;8.790;2022-11-15T21:00:04;15.13;;;10.67;;
68888;SDS011;55930;47.412;8.790;2022-11-15T21:03:25;15.43;;;10.40;;
68888;SDS011;55930;47.412;8.790;2022-11-15T21:06:46;14.03;;;10.23;;
68888;SDS011;55930;47.412;8.790;2022-11-15T21:10:09;13.47;;;10.27;;
68888;SDS011;55930;47.412;8.790;2022-11-15T21:13:48;12.73;;;10.45;;
68888;SDS011;55930;47.412;8.790;2022-11-15T21:17:08;15.30;;;11.10;;
68888;SDS011;55930;47.412;8.790;2022-11-15T21:20:29;16.38;;;11.20;;
68888;SDS011;55930;47.412;8.790;2022-11-15T21:23:49;14.17;;;10.93;;
68888;SDS011;55930;47.412;8.790;2022-11-15T21:27:10;13.43;;;10.67;;
68888;SDS011;55930;47.412;8.790;2022-11-15T21:30:31;13.70;;;10.10;;
68888;SDS011;55930;47.412;8.790;2022-11-15T21:33:54;17.67;;;11.98;;
68888;SDS011;55930;47.412;8.790;2022-11-15T21:37:16;14.68;;;11.70;;
68888;SDS011;55930;47.412;8.790;2022-11-15T21:40:37;21.57;;;12.00;;
68888;SDS011;55930;47.412;8.790;2022-11-15T21:44:00;15.45;;;12.23;;
68888;SDS011;55930;47.412;8.790;2022-11-15T21:47:22;17.80;;;13.05;;
68888;SDS011;55930;47.412;8.790;2022-11-15T21:50:42;15.83;;;13.67;;
68888;SDS011;55930;47.412;8.790;2022-11-15T21:54:05;16.02;;;13.55;;
68888;SDS011;55930;47.412;8.790;2022-11-15T21:57:25;18.37;;;14.63;;
68888;SDS011;55930;47.412;8.790;2022-11-15T22:00:49;21.23;;;14.43;;
68888;SDS011;55930;47.412;8.790;2022-11-15T22:04:28;16.42;;;13.88;;
68888;SDS011;55930;47.412;8.790;2022-11-15T22:07:50;16.13;;;13.67;;
68888;SDS011;55930;47.412;8.790;2022-11-15T22:11:11;19.27;;;13.38;;
68888;SDS011;55930;47.412;8.790;2022-11-15T22:14:36;19.27;;;13.82;;
68888;SDS011;55930;47.412;8.790;2022-11-15T22:17:56;19.67;;;13.80;;
68888;SDS011;55930;47.412;8.790;2022-11-15T22:21:17;16.30;;;13.60;;
68888;SDS011;55930;47.412;8.790;2022-11-15T22:24:37;16.98;;;13.35;;
68888;SDS011;55930;47.412;8.790;2022-11-15T22:27:58;17.10;;;13.57;;
68888;SDS011;55930;47.412;8.790;2022-11-15T22:31:18;16.93;;;13.43;;
68888;SDS011;55930;47.412;8.790;2022-11-15T22:34:38;18.03;;;13.47;;
68888;SDS011;55930;47.412;8.790;2022-11-15T22:37:59;17.67;;;13.63;;
68888;SDS011;55930;47.412;8.790;2022-11-15T22:41:19;15.67;;;12.97;;